createdAt,value
2023-04-06T00:01:54.937Z,97593.53
2023-04-06T00:04:22.736Z,97593.63
2023-04-06T00:06:50.610Z,97591.06
2023-04-06T00:09:20.272Z,97601.41
2023-04-06T00:11:48.139Z,97596.25
2023-04-06T00:14:18.618Z,97585.00
2023-04-06T00:16:46.638Z,97585.00
2023-04-06T00:19:14.867Z,97579.97
2023-04-06T00:21:43.105Z,97582.56
2023-04-06T00:24:11.094Z,97579.19
2023-04-06T00:26:40.286Z,97575.72
2023-04-06T00:29:08.936Z,97574.00
2023-04-06T00:31:37.206Z,97565.44
2023-04-06T00:34:05.066Z,97571.53
2023-04-06T00:36:33.232Z,97570.63
2023-04-06T00:39:01.139Z,97569.81
2023-04-06T00:41:28.966Z,97561.22
2023-04-06T00:43:58.813Z,97564.63
2023-04-06T00:46:26.754Z,97557.63
2023-04-06T00:48:54.673Z,97557.53
2023-04-06T00:51:22.677Z,97555.72
2023-04-06T00:53:50.963Z,97558.22
2023-04-06T00:56:18.949Z,97546.16
2023-04-06T00:58:47.154Z,97546.16
2023-04-06T01:01:16.706Z,97548.84
2023-04-06T01:03:45.729Z,97536.09
2023-04-06T01:06:13.583Z,97537.13
2023-04-06T01:08:41.907Z,97539.81
2023-04-06T01:11:09.797Z,97537.41
2023-04-06T01:13:37.996Z,97533.31
2023-04-06T01:16:06.730Z,97535.91
2023-04-06T01:18:36.517Z,97528.34
2023-04-06T01:21:04.875Z,97536.28
2023-04-06T01:23:34.115Z,97531.25
2023-04-06T01:26:01.922Z,97529.63
2023-04-06T01:28:30.009Z,97534.09
2023-04-06T01:30:57.843Z,97526.44
2023-04-06T01:33:26.103Z,97523.09
2023-04-06T01:35:54.143Z,97524.06
2023-04-06T01:38:22.066Z,97515.56
2023-04-06T01:40:51.351Z,97512.13
2023-04-06T01:43:19.188Z,97513.03
2023-04-06T01:45:46.970Z,97513.09
2023-04-06T01:48:14.869Z,97508.88
2023-04-06T01:50:42.655Z,97505.38
2023-04-06T01:53:10.777Z,97500.22
2023-04-06T01:55:38.581Z,97508.00
2023-04-06T01:58:07.821Z,97512.31
2023-04-06T02:00:36.045Z,97513.34
2023-04-06T02:03:03.857Z,97502.19
2023-04-06T02:05:34.194Z,97502.13
2023-04-06T02:08:02.066Z,97497.94
2023-04-06T02:10:29.774Z,97503.03
2023-04-06T02:12:57.544Z,97500.59
2023-04-06T02:15:26.732Z,97504.03
2023-04-06T02:17:54.684Z,97501.63
2023-04-06T02:20:22.484Z,97507.53
2023-04-06T02:22:50.497Z,97504.22
2023-04-06T02:25:18.471Z,97506.75
2023-04-06T02:27:46.245Z,97498.97
2023-04-06T02:30:14.383Z,97492.25
2023-04-06T02:32:43.572Z,97503.41
2023-04-06T02:35:11.440Z,97501.72
2023-04-06T02:37:39.237Z,97497.47
2023-04-06T02:40:08.206Z,97494.94
2023-04-06T02:42:36.172Z,97497.53
2023-04-06T02:45:04.072Z,97493.22
2023-04-06T02:47:31.998Z,97495.78
2023-04-06T02:50:01.333Z,97488.88
2023-04-06T02:52:29.174Z,97495.88
2023-04-06T02:54:56.932Z,97495.00
2023-04-06T02:57:26.011Z,97491.53
2023-04-06T02:59:53.770Z,97496.72
2023-04-06T03:02:21.613Z,97495.00
2023-04-06T03:04:49.510Z,97494.16
2023-04-06T03:07:18.711Z,97488.22
2023-04-06T03:09:46.506Z,97487.34
2023-04-06T03:12:14.249Z,97490.75
2023-04-06T03:14:42.035Z,97483.88
2023-04-06T03:17:09.856Z,97486.53
2023-04-06T03:19:37.674Z,97491.72
2023-04-06T03:22:05.416Z,97488.28
2023-04-06T03:24:34.565Z,97485.75
2023-04-06T03:27:02.549Z,97490.09
2023-04-06T03:29:31.206Z,97489.34
2023-04-06T03:31:58.943Z,97491.97
2023-04-06T03:34:26.682Z,97495.47
2023-04-06T03:37:03.192Z,97489.44
2023-04-06T03:39:38.943Z,97488.56
2023-04-06T03:42:06.884Z,97493.03
2023-04-06T03:44:34.645Z,97492.25
2023-04-06T03:47:03.310Z,97502.56
2023-04-06T03:49:31.392Z,97489.66
2023-04-06T03:51:59.143Z,97496.72
2023-04-06T03:54:26.916Z,97496.72
2023-04-06T03:56:56.170Z,97496.72
2023-04-06T03:59:24.092Z,97496.72
2023-04-06T04:01:52.168Z,97500.22
2023-04-06T04:04:19.983Z,97497.63
2023-04-06T04:06:47.713Z,97503.66
2023-04-06T04:09:15.500Z,97507.16
2023-04-06T04:11:43.227Z,97505.47
2023-04-06T04:14:12.449Z,97502.06
2023-04-06T04:16:40.580Z,97506.56
2023-04-06T04:19:08.675Z,97508.38
2023-04-06T04:21:44.688Z,97506.78
2023-04-06T04:24:12.650Z,97514.66
2023-04-06T04:26:40.870Z,97512.13
2023-04-06T04:29:09.341Z,97506.38
2023-04-06T04:31:38.859Z,97511.44
2023-04-06T04:34:07.954Z,97514.88
2023-04-06T04:36:35.793Z,97513.22
2023-04-06T04:39:03.661Z,97518.44
2023-04-06T04:41:31.804Z,97509.88
2023-04-06T04:43:59.648Z,97517.66
2023-04-06T04:46:27.464Z,97518.50
2023-04-06T04:48:56.772Z,97523.66
2023-04-06T04:51:25.748Z,97521.06
2023-04-06T04:53:53.585Z,97522.84
2023-04-06T04:56:21.314Z,97518.53
2023-04-06T04:58:49.158Z,97521.22
2023-04-06T05:01:17.135Z,97518.72
2023-04-06T05:03:45.163Z,97522.16
2023-04-06T05:06:14.492Z,97520.44
2023-04-06T05:08:42.732Z,97524.72
2023-04-06T05:11:10.950Z,97522.13
2023-04-06T05:13:38.746Z,97523.88
2023-04-06T05:16:06.928Z,97522.94
2023-04-06T05:18:34.793Z,97528.91
2023-04-06T05:21:02.617Z,97517.66
2023-04-06T05:23:31.785Z,97515.88
2023-04-06T05:25:59.790Z,97516.59
2023-04-06T05:28:27.599Z,97520.00
2023-04-06T05:30:55.608Z,97521.53
2023-04-06T05:33:23.383Z,97526.56
2023-04-06T05:35:51.404Z,97524.44
2023-04-06T05:38:19.170Z,97524.03
2023-04-06T05:40:48.391Z,97523.72
2023-04-06T05:43:16.124Z,97520.69
2023-04-06T05:45:46.366Z,97522.94
2023-04-06T05:48:14.221Z,97527.84
2023-04-06T05:50:42.131Z,97525.22
2023-04-06T05:53:09.946Z,97528.53
2023-04-06T05:55:37.700Z,97527.59
2023-04-06T05:58:06.840Z,97528.25
2023-04-06T06:00:35.499Z,97510.38
2023-04-06T06:03:05.252Z,97527.03
2023-04-06T06:05:33.141Z,97531.97
2023-04-06T06:08:03.126Z,97516.34
2023-04-06T06:10:31.257Z,97502.50
2023-04-06T06:12:59.007Z,97531.97
2023-04-06T06:15:28.207Z,97537.03
2023-04-06T06:17:57.990Z,97523.31
2023-04-06T06:20:25.904Z,97531.63
2023-04-06T06:22:53.662Z,97533.88
2023-04-06T06:25:22.451Z,97534.59
2023-04-06T06:27:50.213Z,97541.22
2023-04-06T06:30:19.364Z,97534.16
2023-04-06T06:32:49.643Z,97522.72
2023-04-06T06:35:17.785Z,97533.78
2023-04-06T06:37:45.964Z,97515.06
2023-04-06T06:40:14.304Z,97531.03
2023-04-06T06:42:42.250Z,97536.81
2023-04-06T06:45:11.066Z,97539.28
2023-04-06T06:47:38.829Z,97538.13
2023-04-06T06:50:09.345Z,97533.41
2023-04-06T06:52:37.057Z,97537.91
2023-04-06T06:55:05.188Z,97543.72
2023-04-06T06:57:42.272Z,97541.13
2023-04-06T07:00:13.609Z,97537.09
2023-04-06T07:02:41.843Z,97530.31
2023-04-06T07:05:26.195Z,97538.44
2023-04-06T07:07:55.765Z,97541.16
2023-04-06T07:10:23.882Z,97541.09
2023-04-06T07:12:51.642Z,97531.22
2023-04-06T07:15:19.503Z,97534.16
2023-04-06T07:17:47.292Z,97536.22
2023-04-06T07:20:16.897Z,97529.03
2023-04-06T07:22:45.474Z,97536.19
2023-04-06T07:25:13.497Z,97541.72
2023-04-06T07:27:41.300Z,97541.63
2023-04-06T07:30:10.239Z,97538.28
2023-04-06T07:32:38.009Z,97535.72
2023-04-06T07:35:06.496Z,97539.84
2023-04-06T07:37:36.144Z,97535.78
2023-04-06T07:40:03.982Z,97538.00
2023-04-06T07:42:31.779Z,97544.06
2023-04-06T07:44:59.572Z,97534.94
2023-04-06T07:47:27.403Z,97539.53
2023-04-06T07:49:57.098Z,97541.00
2023-04-06T07:52:24.892Z,97540.09
2023-04-06T07:54:54.045Z,97530.06
2023-04-06T07:57:21.812Z,97542.16
2023-04-06T07:59:49.550Z,97538.72
2023-04-06T08:02:17.470Z,97529.06
2023-04-06T08:04:46.332Z,97538.53
2023-04-06T08:07:14.526Z,97540.41
2023-04-06T08:09:42.298Z,97537.69
2023-04-06T08:12:11.522Z,97542.66
2023-04-06T08:14:39.348Z,97542.41
2023-04-06T08:17:07.134Z,97551.00
2023-04-06T08:19:34.982Z,97536.19
2023-04-06T08:22:03.498Z,97543.59
2023-04-06T08:24:33.339Z,97549.28
2023-04-06T08:27:01.173Z,97547.44
2023-04-06T08:29:30.398Z,97551.59
2023-04-06T08:31:58.186Z,97549.44
2023-04-06T08:34:25.993Z,97555.06
2023-04-06T08:36:53.760Z,97557.53
2023-04-06T08:39:26.429Z,97547.88
2023-04-06T08:41:57.894Z,97556.91
2023-04-06T08:44:26.204Z,97541.25
2023-04-06T08:46:55.956Z,97549.00
2023-04-06T08:49:23.884Z,97547.47
2023-04-06T08:51:52.143Z,97555.25
2023-04-06T08:54:20.054Z,97553.06
2023-04-06T08:56:48.174Z,97553.38
2023-04-06T08:59:16.195Z,97558.53
2023-04-06T09:01:45.065Z,97547.13
2023-04-06T09:04:15.187Z,97554.31
2023-04-06T09:06:43.513Z,97562.78
2023-04-06T09:09:11.375Z,97555.75
2023-04-06T09:11:46.939Z,97551.53
2023-04-06T09:14:14.971Z,97549.50
2023-04-06T09:16:43.649Z,97540.53
2023-04-06T09:19:11.834Z,97560.41
2023-04-06T09:21:41.844Z,97563.41
2023-04-06T09:24:10.964Z,97557.03
2023-04-06T09:26:49.098Z,97554.91
2023-04-06T09:29:28.330Z,97553.06
2023-04-06T09:32:04.358Z,97554.44
2023-04-06T09:34:32.495Z,97553.25
2023-04-06T09:37:02.389Z,97545.16
2023-04-06T09:39:30.486Z,97561.69
2023-04-06T09:41:58.419Z,97544.28
2023-04-06T09:44:27.061Z,97550.09
2023-04-06T09:46:59.630Z,97539.38
2023-04-06T09:49:29.713Z,97538.47
2023-04-06T09:52:02.615Z,97544.59
2023-04-06T09:54:31.565Z,97539.34
2023-04-06T09:57:05.936Z,97538.47
2023-04-06T09:59:40.525Z,97539.31
2023-04-06T10:02:10.915Z,97532.03
2023-04-06T10:04:42.377Z,97543.16
2023-04-06T10:07:14.135Z,97505.81
2023-04-06T10:09:41.907Z,97534.72
2023-04-06T10:12:10.143Z,97545.63
2023-04-06T10:14:38.223Z,97541.78
2023-04-06T10:17:06.575Z,97537.03
2023-04-06T10:19:44.392Z,97516.53
2023-04-06T10:22:14.760Z,97535.53
2023-04-06T10:24:42.666Z,97544.38
2023-04-06T10:27:12.264Z,97536.44
2023-04-06T10:29:46.161Z,97535.16
2023-04-06T10:32:14.071Z,97538.03
2023-04-06T10:34:41.885Z,97539.06
2023-04-06T10:37:15.232Z,97528.22
2023-04-06T10:39:49.965Z,97534.22
2023-04-06T10:42:18.353Z,97537.94
2023-04-06T10:44:46.588Z,97532.00
2023-04-06T10:47:20.728Z,97531.63
2023-04-06T10:49:48.615Z,97523.66
2023-04-06T10:52:17.950Z,97526.22
2023-04-06T10:54:47.819Z,97507.50
2023-04-06T10:57:16.908Z,97512.13
2023-04-06T10:59:45.530Z,97522.00
2023-04-06T11:02:22.789Z,97513.56
2023-04-06T11:04:58.203Z,97512.88
2023-04-06T11:07:28.466Z,97513.75
2023-04-06T11:10:12.727Z,97521.97
2023-04-06T11:12:43.892Z,97517.97
2023-04-06T11:15:12.366Z,97506.22
2023-04-06T11:17:40.240Z,97509.31
2023-04-06T11:20:12.911Z,97509.81
2023-04-06T11:22:52.160Z,97493.84
2023-04-06T11:25:20.294Z,97514.09
2023-04-06T11:27:48.777Z,97509.81
2023-04-06T11:30:16.918Z,97512.53
2023-04-06T11:32:46.082Z,97493.75
2023-04-06T11:35:16.457Z,97480.03
2023-04-06T11:37:46.077Z,97497.09
2023-04-06T11:40:15.910Z,97482.34
2023-04-06T11:42:43.708Z,97482.91
2023-04-06T11:45:12.912Z,97482.13
2023-04-06T11:47:41.715Z,97470.28
2023-04-06T11:50:12.438Z,97482.53
2023-04-06T11:52:40.873Z,97473.34
2023-04-06T11:55:18.206Z,97470.59
2023-04-06T11:57:46.328Z,97462.09
2023-04-06T12:00:15.004Z,97458.28
2023-04-06T12:02:47.934Z,97453.59
2023-04-06T12:05:15.902Z,97457.56
2023-04-06T12:07:43.901Z,97456.47
2023-04-06T12:10:12.120Z,97459.13
2023-04-06T12:12:41.315Z,97458.72
2023-04-06T12:15:09.998Z,97458.69
2023-04-06T12:17:37.989Z,97455.13
2023-04-06T12:20:17.990Z,97465.25
2023-04-06T12:22:53.425Z,97446.13
2023-04-06T12:25:21.571Z,97454.75
2023-04-06T12:27:50.930Z,97450.78
2023-04-06T12:30:18.887Z,97442.50
2023-04-06T12:32:48.316Z,97442.88
2023-04-06T12:35:18.514Z,97445.97
2023-04-06T12:37:46.326Z,97442.66
2023-04-06T12:40:15.805Z,97431.09
2023-04-06T12:42:43.782Z,97430.72
2023-04-06T12:45:13.592Z,97393.97
2023-04-06T12:47:41.489Z,97436.34
2023-04-06T12:50:09.935Z,97423.88
2023-04-06T12:52:37.730Z,97430.38
2023-04-06T12:55:07.043Z,97421.09
2023-04-06T12:57:34.867Z,97427.25
2023-04-06T13:00:02.904Z,97426.16
2023-04-06T13:02:32.324Z,97434.66
2023-04-06T13:05:00.129Z,97441.44
2023-04-06T13:07:27.991Z,97426.81
2023-04-06T13:09:55.822Z,97428.34
2023-04-06T13:12:24.294Z,97422.88
2023-04-06T13:14:53.628Z,97416.03
2023-04-06T13:17:22.118Z,97416.19
2023-04-06T13:19:51.432Z,97412.44
2023-04-06T13:22:19.220Z,97416.94
2023-04-06T13:24:47.398Z,97407.91
2023-04-06T13:27:15.472Z,97408.72
2023-04-06T13:29:43.291Z,97408.22
2023-04-06T13:32:11.590Z,97402.75
2023-04-06T13:34:39.397Z,97398.88
2023-04-06T13:37:08.594Z,97398.81
2023-04-06T13:39:36.350Z,97394.28
2023-04-06T13:42:04.292Z,97401.19
2023-04-06T13:44:32.233Z,97391.34
2023-04-06T13:47:00.653Z,97389.75
2023-04-06T13:49:28.796Z,97394.16
2023-04-06T13:51:56.673Z,97399.19
2023-04-06T13:54:25.973Z,97402.31
2023-04-06T13:56:53.774Z,97401.91
2023-04-06T13:59:21.542Z,97397.50
2023-04-06T14:01:49.849Z,97390.97
2023-04-06T14:04:17.795Z,97402.19
2023-04-06T14:06:47.367Z,97392.00
2023-04-06T14:09:15.499Z,97380.75
2023-04-06T14:11:44.636Z,97394.47
2023-04-06T14:14:12.369Z,97391.63
2023-04-06T14:16:40.999Z,97391.38
2023-04-06T14:19:08.900Z,97390.84
2023-04-06T14:21:36.636Z,97386.94
2023-04-06T14:24:04.637Z,97389.97
2023-04-06T14:26:33.080Z,97385.47
2023-04-06T14:29:02.326Z,97392.22
2023-04-06T14:31:30.133Z,97385.19
2023-04-06T14:33:57.947Z,97381.59
2023-04-06T14:36:28.231Z,97391.31
2023-04-06T14:38:56.037Z,97389.19
2023-04-06T14:41:25.875Z,97382.00
2023-04-06T14:43:54.533Z,97394.31
2023-04-06T14:46:23.776Z,97394.66
2023-04-06T14:48:51.880Z,97388.00
2023-04-06T14:51:19.682Z,97376.75
2023-04-06T14:53:47.702Z,97382.97
2023-04-06T14:56:22.268Z,97383.09
2023-04-06T14:58:50.451Z,97372.28
2023-04-06T15:01:18.811Z,97380.16
2023-04-06T15:03:48.451Z,97380.59
2023-04-06T15:06:17.499Z,97390.41
2023-04-06T15:08:45.723Z,97393.16
2023-04-06T15:11:14.273Z,97359.94
2023-04-06T15:13:42.822Z,97395.72
2023-04-06T15:16:11.085Z,97384.53
2023-04-06T15:18:38.900Z,97379.44
2023-04-06T15:21:08.329Z,97389.06
2023-04-06T15:23:37.243Z,97375.03
2023-04-06T15:26:05.097Z,97392.25
2023-04-06T15:28:32.833Z,97383.47
2023-04-06T15:31:00.826Z,97390.63
2023-04-06T15:33:28.834Z,97379.03
2023-04-06T15:35:56.779Z,97383.88
2023-04-06T15:38:25.944Z,97380.94
2023-04-06T15:40:53.901Z,97378.22
2023-04-06T15:43:21.688Z,97398.31
2023-04-06T15:45:49.544Z,97393.28
2023-04-06T15:48:17.374Z,97383.13
2023-04-06T15:50:45.132Z,97392.00
2023-04-06T15:53:13.226Z,97392.50
2023-04-06T15:55:42.364Z,97399.97
2023-04-06T15:58:10.404Z,97397.47
2023-04-06T16:00:38.262Z,97400.38
2023-04-06T16:03:06.454Z,97415.63
2023-04-06T16:05:35.005Z,97397.06
2023-04-06T16:08:12.775Z,97417.41
2023-04-06T16:10:42.015Z,97413.88
2023-04-06T16:13:10.133Z,97401.66
2023-04-06T16:15:38.199Z,97397.34
2023-04-06T16:18:06.518Z,97405.03
2023-04-06T16:20:36.457Z,97404.09
2023-04-06T16:23:04.294Z,97394.91
2023-04-06T16:25:32.104Z,97404.31
2023-04-06T16:28:01.330Z,97400.97
2023-04-06T16:30:30.349Z,97400.34
2023-04-06T16:32:58.478Z,97406.66
2023-04-06T16:35:26.347Z,97385.56
2023-04-06T16:37:54.239Z,97405.09
2023-04-06T16:40:22.195Z,97407.34
2023-04-06T16:42:50.059Z,97405.56
2023-04-06T16:45:19.338Z,97412.03
2023-04-06T16:47:49.508Z,97402.28
2023-04-06T16:50:17.529Z,97394.03
2023-04-06T16:52:45.508Z,97397.22
2023-04-06T16:55:13.622Z,97395.25
2023-04-06T16:57:41.384Z,97396.09
2023-04-06T17:00:10.426Z,97392.91
2023-04-06T17:02:39.829Z,97396.28
2023-04-06T17:05:08.245Z,97404.53
2023-04-06T17:07:36.306Z,97396.66
2023-04-06T17:10:04.749Z,97381.63
2023-04-06T17:12:32.562Z,97406.84
2023-04-06T17:15:00.343Z,97393.44
2023-04-06T17:17:28.162Z,97398.28
2023-04-06T17:19:57.377Z,97402.13
2023-04-06T17:22:25.259Z,97402.38
2023-04-06T17:24:53.012Z,97405.00
2023-04-06T17:27:23.492Z,97404.00
2023-04-06T17:29:51.473Z,97400.50
2023-04-06T17:32:21.443Z,97412.88
2023-04-06T17:34:49.205Z,97406.09
2023-04-06T17:37:18.321Z,97408.16
2023-04-06T17:39:46.245Z,97404.91
2023-04-06T17:42:14.679Z,97413.25
2023-04-06T17:44:42.494Z,97411.44
2023-04-06T17:47:10.456Z,97408.19
2023-04-06T17:49:38.294Z,97411.69
2023-04-06T17:52:06.404Z,97407.91
2023-04-06T17:54:36.822Z,97406.38
2023-04-06T17:57:07.552Z,97415.84
2023-04-06T17:59:35.409Z,97418.53
2023-04-06T18:02:04.397Z,97421.78
2023-04-06T18:04:32.615Z,97432.59
2023-04-06T18:07:00.427Z,97437.56
2023-04-06T18:09:28.225Z,97437.16
2023-04-06T18:11:57.779Z,97436.94
2023-04-06T18:14:25.627Z,97450.09
2023-04-06T18:16:53.377Z,97447.34
2023-04-06T18:19:21.223Z,97455.53
2023-04-06T18:21:48.980Z,97452.13
2023-04-06T18:24:27.141Z,97453.38
2023-04-06T18:27:02.619Z,97448.59
2023-04-06T18:29:30.377Z,97452.53
2023-04-06T18:31:58.207Z,97452.63
2023-04-06T18:34:26.034Z,97447.69
2023-04-06T18:36:53.818Z,97452.94
2023-04-06T18:39:21.612Z,97441.63
2023-04-06T18:41:49.417Z,97451.38
2023-04-06T18:44:18.588Z,97442.59
2023-04-06T18:46:47.041Z,97456.59
2023-04-06T18:49:14.838Z,97463.06
2023-04-06T18:51:43.089Z,97458.06
2023-04-06T18:54:10.875Z,97450.47
2023-04-06T18:56:39.003Z,97452.28
2023-04-06T18:59:06.803Z,97456.00
2023-04-06T19:01:38.603Z,97465.59
2023-04-06T19:04:06.604Z,97461.59
2023-04-06T19:06:35.193Z,97467.50
2023-04-06T19:09:05.000Z,97470.28
2023-04-06T19:11:33.167Z,97465.25
2023-04-06T19:14:00.987Z,97466.72
2023-04-06T19:16:29.293Z,97462.56
2023-04-06T19:18:59.922Z,97469.59
2023-04-06T19:21:28.193Z,97463.03
2023-04-06T19:23:56.632Z,97467.34
2023-04-06T19:26:27.783Z,97461.41
2023-04-06T19:28:55.668Z,97470.31
2023-04-06T19:31:23.488Z,97465.50
2023-04-06T19:33:51.987Z,97465.66
2023-04-06T19:36:21.776Z,97464.81
2023-04-06T19:38:49.569Z,97464.94
2023-04-06T19:41:17.542Z,97460.63
2023-04-06T19:43:45.366Z,97464.25
2023-04-06T19:46:14.735Z,97462.56
2023-04-06T19:48:43.219Z,97453.81
2023-04-06T19:51:11.282Z,97460.00
2023-04-06T19:53:40.422Z,97456.56
2023-04-06T19:56:08.242Z,97457.56
2023-04-06T19:58:36.065Z,97463.88
2023-04-06T20:01:04.440Z,97457.06
2023-04-06T20:03:32.479Z,97448.00
2023-04-06T20:06:00.831Z,97461.56
2023-04-06T20:08:29.828Z,97452.13
2023-04-06T20:11:03.266Z,97454.94
2023-04-06T20:13:31.492Z,97460.31
2023-04-06T20:15:59.951Z,97449.22
2023-04-06T20:18:27.793Z,97438.56
2023-04-06T20:20:56.174Z,97453.78
2023-04-06T20:23:23.988Z,97453.16
2023-04-06T20:25:51.779Z,97449.06
2023-04-06T20:28:21.903Z,97450.25
2023-04-06T20:30:52.724Z,97399.13
2023-04-06T20:33:20.550Z,97439.09
2023-04-06T20:35:48.265Z,97444.03
2023-04-06T20:38:17.651Z,97437.19
2023-04-06T20:40:52.024Z,97440.66
2023-04-06T20:43:25.364Z,97437.25
2023-04-06T20:45:53.188Z,97436.47
2023-04-06T20:48:20.965Z,97438.19
2023-04-06T20:50:49.347Z,97436.41
2023-04-06T20:53:20.987Z,97433.75
2023-04-06T20:55:49.056Z,97431.19
2023-04-06T20:58:20.581Z,97421.59
2023-04-06T21:00:49.948Z,97432.97
2023-04-06T21:03:18.135Z,97428.88
2023-04-06T21:05:51.676Z,97428.91
2023-04-06T21:08:19.532Z,97422.00
2023-04-06T21:10:47.325Z,97424.56
2023-04-06T21:13:15.054Z,97419.28
2023-04-06T21:15:42.870Z,97423.72
2023-04-06T21:18:12.386Z,97418.66
2023-04-06T21:20:40.430Z,97423.16
2023-04-06T21:23:08.281Z,97420.22
2023-04-06T21:25:37.635Z,97416.47
2023-04-06T21:28:06.064Z,97412.31
2023-04-06T21:30:37.181Z,97411.50
2023-04-06T21:33:05.193Z,97413.50
2023-04-06T21:35:34.535Z,97407.41
2023-04-06T21:38:02.262Z,97399.88
2023-04-06T21:40:30.120Z,97402.53
2023-04-06T21:42:58.189Z,97399.81
2023-04-06T21:45:26.251Z,97397.19
2023-04-06T21:47:54.253Z,97393.19
2023-04-06T21:50:22.162Z,97400.72
2023-04-06T21:52:51.554Z,97395.78
2023-04-06T21:55:19.662Z,97398.41
2023-04-06T21:57:47.749Z,97390.56
2023-04-06T22:00:16.844Z,97394.59
2023-04-06T22:02:46.142Z,97397.25
2023-04-06T22:05:14.308Z,97391.41
2023-04-06T22:07:42.322Z,97382.50
2023-04-06T22:10:11.670Z,97388.66
2023-04-06T22:12:39.443Z,97385.91
2023-04-06T22:15:08.518Z,97380.69
2023-04-06T22:17:36.708Z,97386.59
2023-04-06T22:20:04.906Z,97350.22
2023-04-06T22:22:32.697Z,97371.50
2023-04-06T22:25:01.244Z,97367.34
2023-04-06T22:27:30.806Z,97366.28
2023-04-06T22:29:58.735Z,97363.56
2023-04-06T22:32:26.670Z,97361.84
2023-04-06T22:34:54.799Z,97361.06
2023-04-06T22:37:22.819Z,97358.47
2023-04-06T22:39:50.800Z,97360.16
2023-04-06T22:42:18.635Z,97362.19
2023-04-06T22:44:47.875Z,97353.69
2023-04-06T22:47:15.683Z,97356.41
2023-04-06T22:49:44.629Z,97357.25
2023-04-06T22:52:12.478Z,97358.13
2023-04-06T22:54:48.035Z,97356.53
2023-04-06T22:57:16.025Z,97347.03
2023-04-06T22:59:44.200Z,97339.63
2023-04-06T23:02:14.415Z,97347.97
2023-04-06T23:04:42.424Z,97343.50
2023-04-06T23:07:12.344Z,97338.38
2023-04-06T23:09:41.211Z,97333.28
2023-04-06T23:12:09.337Z,97332.31
2023-04-06T23:14:37.104Z,97327.94
2023-04-06T23:17:05.593Z,97326.06
2023-04-06T23:19:35.000Z,97330.59
2023-04-06T23:22:03.334Z,97329.88
2023-04-06T23:24:31.285Z,97333.34
2023-04-06T23:26:59.219Z,97326.38
2023-04-06T23:29:26.997Z,97325.66
2023-04-06T23:31:54.956Z,97320.44
2023-04-06T23:34:22.966Z,97315.22
2023-04-06T23:36:53.147Z,97310.94
2023-04-06T23:39:20.986Z,97317.06
2023-04-06T23:41:48.979Z,97307.41
2023-04-06T23:44:16.828Z,97274.31
2023-04-06T23:46:44.744Z,97301.00
2023-04-06T23:49:12.781Z,97307.75
2023-04-06T23:51:40.555Z,97308.72
2023-04-06T23:54:10.497Z,97294.22
2023-04-06T23:56:38.331Z,97306.22
2023-04-06T23:59:06.226Z,97307.91
